sensor_id;sensor_type;location;lat;lon;timestamp;pressure;altitude;pressure_sealevel;temperature;humidity
19286;BME280;9776;50.798;6.430;2022-08-05T00:01:22;99972.28;;;24.78;52.50
19286;BME280;9776;50.798;6.430;2022-08-05T00:03:49;99971.34;;;24.67;52.83
19286;BME280;9776;50.798;6.430;2022-08-05T00:06:16;99977.44;;;24.58;53.19
19286;BME280;9776;50.798;6.430;2022-08-05T00:08:44;99979.78;;;24.54;53.29
19286;BME280;9776;50.798;6.430;2022-08-05T00:11:13;99978.47;;;24.57;53.33
19286;BME280;9776;50.798;6.430;2022-08-05T00:13:42;99983.56;;;24.53;53.52
19286;BME280;9776;50.798;6.430;2022-08-05T00:16:11;99989.22;;;24.52;53.65
19286;BME280;9776;50.798;6.430;2022-08-05T00:18:40;99983.16;;;24.45;53.77
19286;BME280;9776;50.798;6.430;2022-08-05T00:21:07;99981.16;;;24.35;54.09
19286;BME280;9776;50.798;6.430;2022-08-05T00:23:35;99972.72;;;24.32;54.02
19286;BME280;9776;50.798;6.430;2022-08-05T00:26:02;99970.25;;;24.30;54.20
19286;BME280;9776;50.798;6.430;2022-08-05T00:28:31;99963.75;;;24.26;54.21
19286;BME280;9776;50.798;6.430;2022-08-05T00:30:58;99961.28;;;24.24;54.37
19286;BME280;9776;50.798;6.430;2022-08-05T00:33:25;99954.50;;;24.22;54.17
19286;BME280;9776;50.798;6.430;2022-08-05T00:35:52;99954.00;;;24.25;54.22
19286;BME280;9776;50.798;6.430;2022-08-05T00:38:18;99964.72;;;24.20;54.24
19286;BME280;9776;50.798;6.430;2022-08-05T00:40:47;99962.25;;;24.18;54.23
19286;BME280;9776;50.798;6.430;2022-08-05T00:43:14;99971.38;;;24.12;54.57
19286;BME280;9776;50.798;6.430;2022-08-05T00:45:43;99963.75;;;24.09;54.54
19286;BME280;9776;50.798;6.430;2022-08-05T00:48:11;99967.84;;;23.95;54.94
19286;BME280;9776;50.798;6.430;2022-08-05T00:50:38;99963.00;;;23.81;55.40
19286;BME280;9776;50.798;6.430;2022-08-05T00:53:06;99968.69;;;23.67;55.98
19286;BME280;9776;50.798;6.430;2022-08-05T00:55:33;99971.94;;;23.53;56.42
19286;BME280;9776;50.798;6.430;2022-08-05T00:57:59;99966.03;;;23.39;56.89
19286;BME280;9776;50.798;6.430;2022-08-05T01:00:27;99974.22;;;23.33;57.19
19286;BME280;9776;50.798;6.430;2022-08-05T01:02:56;99972.00;;;23.30;57.31
19286;BME280;9776;50.798;6.430;2022-08-05T01:05:24;99968.41;;;23.24;57.34
19286;BME280;9776;50.798;6.430;2022-08-05T01:07:52;99957.06;;;23.22;57.39
19286;BME280;9776;50.798;6.430;2022-08-05T01:10:21;99953.56;;;23.22;57.28
19286;BME280;9776;50.798;6.430;2022-08-05T01:12:55;99956.25;;;23.22;57.29
19286;BME280;9776;50.798;6.430;2022-08-05T01:15:27;99954.38;;;23.22;57.36
19286;BME280;9776;50.798;6.430;2022-08-05T01:17:59;99958.59;;;23.18;57.35
19286;BME280;9776;50.798;6.430;2022-08-05T01:20:44;99963.63;;;23.14;57.45
19286;BME280;9776;50.798;6.430;2022-08-05T01:23:23;99982.75;;;23.13;57.60
19286;BME280;9776;50.798;6.430;2022-08-05T01:26:02;99991.38;;;23.15;57.41
19286;BME280;9776;50.798;6.430;2022-08-05T01:28:38;99994.34;;;23.13;57.81
19286;BME280;9776;50.798;6.430;2022-08-05T01:31:14;100008.00;;;23.12;57.95
19286;BME280;9776;50.798;6.430;2022-08-05T01:33:47;100009.22;;;23.04;58.24
19286;BME280;9776;50.798;6.430;2022-08-05T01:36:16;100020.34;;;23.08;58.32
19286;BME280;9776;50.798;6.430;2022-08-05T01:38:45;100027.59;;;23.07;58.21
19286;BME280;9776;50.798;6.430;2022-08-05T01:41:16;100032.72;;;23.09;58.52
19286;BME280;9776;50.798;6.430;2022-08-05T01:43:45;100035.22;;;22.99;58.51
19286;BME280;9776;50.798;6.430;2022-08-05T01:46:13;100057.34;;;22.89;58.95
19286;BME280;9776;50.798;6.430;2022-08-05T01:48:43;100087.78;;;22.78;59.46
19286;BME280;9776;50.798;6.430;2022-08-05T01:51:11;100087.09;;;22.71;59.64
19286;BME280;9776;50.798;6.430;2022-08-05T01:53:40;100100.41;;;22.66;59.90
19286;BME280;9776;50.798;6.430;2022-08-05T01:56:08;100106.84;;;22.65;59.95
19286;BME280;9776;50.798;6.430;2022-08-05T01:58:41;100122.75;;;22.67;60.24
19286;BME280;9776;50.798;6.430;2022-08-05T02:01:10;100126.84;;;22.69;60.49
19286;BME280;9776;50.798;6.430;2022-08-05T02:03:42;100120.41;;;22.70;60.52
19286;BME280;9776;50.798;6.430;2022-08-05T02:06:10;100131.75;;;22.72;60.39
19286;BME280;9776;50.798;6.430;2022-08-05T02:08:37;100140.41;;;22.74;60.65
19286;BME280;9776;50.798;6.430;2022-08-05T02:11:07;100156.91;;;22.78;60.72
19286;BME280;9776;50.798;6.430;2022-08-05T02:13:37;100156.56;;;22.86;60.86
19286;BME280;9776;50.798;6.430;2022-08-05T02:16:16;100175.19;;;22.76;61.26
19286;BME280;9776;50.798;6.430;2022-08-05T02:18:49;100183.13;;;22.71;61.82
19286;BME280;9776;50.798;6.430;2022-08-05T02:21:21;100162.06;;;22.68;62.18
19286;BME280;9776;50.798;6.430;2022-08-05T02:23:52;100092.94;;;22.68;62.40
19286;BME280;9776;50.798;6.430;2022-08-05T02:26:23;100004.00;;;22.75;62.72
19286;BME280;9776;50.798;6.430;2022-08-05T02:28:52;99956.03;;;22.83;62.53
19286;BME280;9776;50.798;6.430;2022-08-05T02:31:26;99927.94;;;22.91;62.32
19286;BME280;9776;50.798;6.430;2022-08-05T02:33:56;99932.38;;;22.97;62.38
19286;BME280;9776;50.798;6.430;2022-08-05T02:36:26;99953.53;;;22.93;62.66
19286;BME280;9776;50.798;6.430;2022-08-05T02:38:54;99989.38;;;22.94;62.78
19286;BME280;9776;50.798;6.430;2022-08-05T02:41:24;100019.22;;;22.81;63.22
19286;BME280;9776;50.798;6.430;2022-08-05T02:43:51;100064.28;;;22.74;63.60
19286;BME280;9776;50.798;6.430;2022-08-05T02:46:19;100097.97;;;22.65;63.90
19286;BME280;9776;50.798;6.430;2022-08-05T02:48:48;100110.28;;;22.54;64.27
19286;BME280;9776;50.798;6.430;2022-08-05T02:51:17;100097.09;;;22.41;64.58
19286;BME280;9776;50.798;6.430;2022-08-05T02:53:44;100103.25;;;22.30;65.08
19286;BME280;9776;50.798;6.430;2022-08-05T02:56:12;100104.06;;;22.19;65.58
19286;BME280;9776;50.798;6.430;2022-08-05T02:58:40;100113.38;;;22.04;66.04
19286;BME280;9776;50.798;6.430;2022-08-05T03:01:12;100105.72;;;21.90;66.49
19286;BME280;9776;50.798;6.430;2022-08-05T03:03:40;100120.94;;;21.96;66.55
19286;BME280;9776;50.798;6.430;2022-08-05T03:06:10;100109.00;;;21.74;67.13
19286;BME280;9776;50.798;6.430;2022-08-05T03:08:38;100100.13;;;21.43;68.10
19286;BME280;9776;50.798;6.430;2022-08-05T03:11:15;100092.19;;;21.48;68.01
19286;BME280;9776;50.798;6.430;2022-08-05T03:13:42;100082.47;;;21.66;67.44
19286;BME280;9776;50.798;6.430;2022-08-05T03:16:09;100080.31;;;21.86;67.06
19286;BME280;9776;50.798;6.430;2022-08-05T03:18:36;100073.03;;;21.93;66.77
19286;BME280;9776;50.798;6.430;2022-08-05T03:21:03;100070.34;;;21.75;67.06
19286;BME280;9776;50.798;6.430;2022-08-05T03:23:31;100062.50;;;21.73;67.73
19286;BME280;9776;50.798;6.430;2022-08-05T03:25:58;100057.41;;;21.83;67.42
19286;BME280;9776;50.798;6.430;2022-08-05T03:28:26;100062.03;;;21.94;66.99
19286;BME280;9776;50.798;6.430;2022-08-05T03:30:53;100055.50;;;22.02;66.79
19286;BME280;9776;50.798;6.430;2022-08-05T03:33:21;100061.50;;;22.16;66.86
19286;BME280;9776;50.798;6.430;2022-08-05T03:35:49;100046.41;;;22.15;66.77
19286;BME280;9776;50.798;6.430;2022-08-05T03:38:16;100056.59;;;22.13;66.90
19286;BME280;9776;50.798;6.430;2022-08-05T03:40:45;100026.31;;;22.17;66.79
19286;BME280;9776;50.798;6.430;2022-08-05T03:43:11;100019.09;;;22.29;66.74
19286;BME280;9776;50.798;6.430;2022-08-05T03:45:38;100020.97;;;22.40;66.13
19286;BME280;9776;50.798;6.430;2022-08-05T03:48:05;100004.00;;;22.51;65.84
19286;BME280;9776;50.798;6.430;2022-08-05T03:50:40;99994.16;;;22.57;65.89
19286;BME280;9776;50.798;6.430;2022-08-05T03:53:12;99992.28;;;22.57;65.66
19286;BME280;9776;50.798;6.430;2022-08-05T03:55:45;99971.38;;;22.59;65.65
19286;BME280;9776;50.798;6.430;2022-08-05T03:58:16;99937.94;;;22.55;65.61
19286;BME280;9776;50.798;6.430;2022-08-05T04:00:45;99915.41;;;22.33;66.19
19286;BME280;9776;50.798;6.430;2022-08-05T04:03:14;99918.56;;;22.19;66.56
19286;BME280;9776;50.798;6.430;2022-08-05T04:05:43;99962.63;;;22.18;66.60
19286;BME280;9776;50.798;6.430;2022-08-05T04:08:10;100007.84;;;22.09;67.16
19286;BME280;9776;50.798;6.430;2022-08-05T04:10:38;100007.72;;;22.04;67.72
19286;BME280;9776;50.798;6.430;2022-08-05T04:13:06;100005.03;;;22.04;67.88
19286;BME280;9776;50.798;6.430;2022-08-05T04:15:33;100004.22;;;22.15;67.58
19286;BME280;9776;50.798;6.430;2022-08-05T04:18:01;100018.97;;;22.13;67.92
19286;BME280;9776;50.798;6.430;2022-08-05T04:20:29;100024.91;;;22.03;68.41
19286;BME280;9776;50.798;6.430;2022-08-05T04:22:56;100018.38;;;21.99;68.40
19286;BME280;9776;50.798;6.430;2022-08-05T04:25:22;100025.81;;;21.97;68.56
19286;BME280;9776;50.798;6.430;2022-08-05T04:27:50;100033.97;;;21.90;68.74
19286;BME280;9776;50.798;6.430;2022-08-05T04:30:18;100034.78;;;21.91;68.97
19286;BME280;9776;50.798;6.430;2022-08-05T04:32:44;100035.88;;;21.90;68.88
19286;BME280;9776;50.798;6.430;2022-08-05T04:35:11;100043.13;;;22.01;68.76
19286;BME280;9776;50.798;6.430;2022-08-05T04:37:38;100030.84;;;22.05;68.66
19286;BME280;9776;50.798;6.430;2022-08-05T04:40:05;100010.78;;;22.08;68.52
19286;BME280;9776;50.798;6.430;2022-08-05T04:42:32;100018.72;;;22.14;68.34
19286;BME280;9776;50.798;6.430;2022-08-05T04:44:59;100032.63;;;22.23;68.19
19286;BME280;9776;50.798;6.430;2022-08-05T04:47:27;100030.06;;;22.16;68.44
19286;BME280;9776;50.798;6.430;2022-08-05T04:49:54;100049.22;;;22.08;68.71
19286;BME280;9776;50.798;6.430;2022-08-05T04:52:20;100045.94;;;22.06;68.65
19286;BME280;9776;50.798;6.430;2022-08-05T04:54:47;100037.28;;;22.04;68.73
19286;BME280;9776;50.798;6.430;2022-08-05T04:57:14;100034.72;;;22.09;68.65
19286;BME280;9776;50.798;6.430;2022-08-05T04:59:41;100026.66;;;22.09;68.40
19286;BME280;9776;50.798;6.430;2022-08-05T05:02:07;100042.22;;;22.07;68.76
19286;BME280;9776;50.798;6.430;2022-08-05T05:04:36;100040.81;;;22.04;68.86
19286;BME280;9776;50.798;6.430;2022-08-05T05:07:03;100036.09;;;22.00;69.00
19286;BME280;9776;50.798;6.430;2022-08-05T05:09:29;100044.06;;;22.07;68.62
19286;BME280;9776;50.798;6.430;2022-08-05T05:11:56;100049.44;;;22.07;68.47
19286;BME280;9776;50.798;6.430;2022-08-05T05:14:23;100046.50;;;22.08;68.72
19286;BME280;9776;50.798;6.430;2022-08-05T05:16:50;100050.84;;;22.09;68.73
19286;BME280;9776;50.798;6.430;2022-08-05T05:19:17;100055.03;;;22.05;68.64
19286;BME280;9776;50.798;6.430;2022-08-05T05:21:45;100056.31;;;22.02;69.08
19286;BME280;9776;50.798;6.430;2022-08-05T05:24:12;100061.69;;;22.02;68.92
19286;BME280;9776;50.798;6.430;2022-08-05T05:26:39;100058.88;;;21.97;69.14
19286;BME280;9776;50.798;6.430;2022-08-05T05:29:06;100057.59;;;22.00;69.06
19286;BME280;9776;50.798;6.430;2022-08-05T05:31:33;100065.91;;;21.98;69.02
19286;BME280;9776;50.798;6.430;2022-08-05T05:33:59;100063.81;;;22.00;69.06
19286;BME280;9776;50.798;6.430;2022-08-05T05:36:26;100068.47;;;22.05;68.93
19286;BME280;9776;50.798;6.430;2022-08-05T05:38:54;100076.41;;;22.00;69.02
19286;BME280;9776;50.798;6.430;2022-08-05T05:41:21;100077.69;;;21.97;69.09
19286;BME280;9776;50.798;6.430;2022-08-05T05:43:48;100081.88;;;21.93;69.08
19286;BME280;9776;50.798;6.430;2022-08-05T05:46:15;100083.84;;;21.86;69.42
19286;BME280;9776;50.798;6.430;2022-08-05T05:48:41;100077.63;;;21.86;69.23
19286;BME280;9776;50.798;6.430;2022-08-05T05:51:08;100071.69;;;21.84;69.24
19286;BME280;9776;50.798;6.430;2022-08-05T05:53:35;100068.22;;;21.95;69.02
19286;BME280;9776;50.798;6.430;2022-08-05T05:56:03;100067.03;;;21.91;68.87
19286;BME280;9776;50.798;6.430;2022-08-05T05:58:30;100067.66;;;21.93;69.08
19286;BME280;9776;50.798;6.430;2022-08-05T06:00:57;100075.25;;;21.96;68.90
19286;BME280;9776;50.798;6.430;2022-08-05T06:03:24;100074.66;;;21.94;68.77
19286;BME280;9776;50.798;6.430;2022-08-05T06:05:50;100083.63;;;21.88;69.15
19286;BME280;9776;50.798;6.430;2022-08-05T06:08:17;100085.94;;;21.84;69.12
19286;BME280;9776;50.798;6.430;2022-08-05T06:10:44;100089.41;;;21.85;69.23
19286;BME280;9776;50.798;6.430;2022-08-05T06:13:12;100090.03;;;21.87;68.90
19286;BME280;9776;50.798;6.430;2022-08-05T06:15:39;100096.44;;;21.86;69.15
19286;BME280;9776;50.798;6.430;2022-08-05T06:18:05;100087.13;;;21.88;68.81
19286;BME280;9776;50.798;6.430;2022-08-05T06:20:32;100099.13;;;21.86;68.99
19286;BME280;9776;50.798;6.430;2022-08-05T06:22:59;100095.50;;;21.80;69.14
19286;BME280;9776;50.798;6.430;2022-08-05T06:25:26;100104.97;;;21.83;69.04
19286;BME280;9776;50.798;6.430;2022-08-05T06:27:52;100100.28;;;21.78;69.22
19286;BME280;9776;50.798;6.430;2022-08-05T06:30:20;100096.91;;;21.83;69.11
19286;BME280;9776;50.798;6.430;2022-08-05T06:32:47;100094.88;;;21.96;68.68
19286;BME280;9776;50.798;6.430;2022-08-05T06:35:14;100104.16;;;22.12;68.33
19286;BME280;9776;50.798;6.430;2022-08-05T06:37:41;100104.06;;;22.19;67.93
19286;BME280;9776;50.798;6.430;2022-08-05T06:40:08;100117.00;;;22.10;68.17
19286;BME280;9776;50.798;6.430;2022-08-05T06:42:36;100114.03;;;22.00;68.66
19286;BME280;9776;50.798;6.430;2022-08-05T06:45:04;100108.63;;;21.88;68.73
19286;BME280;9776;50.798;6.430;2022-08-05T06:47:32;100113.59;;;21.85;69.21
19286;BME280;9776;50.798;6.430;2022-08-05T06:49:59;100109.94;;;21.97;68.76
19286;BME280;9776;50.798;6.430;2022-08-05T06:52:26;100116.28;;;22.03;68.72
19286;BME280;9776;50.798;6.430;2022-08-05T06:54:52;100122.69;;;22.02;68.61
19286;BME280;9776;50.798;6.430;2022-08-05T06:57:19;100130.16;;;22.00;68.66
19286;BME280;9776;50.798;6.430;2022-08-05T06:59:46;100136.00;;;21.97;68.95
19286;BME280;9776;50.798;6.430;2022-08-05T07:02:12;100142.78;;;21.99;68.66
19286;BME280;9776;50.798;6.430;2022-08-05T07:04:41;100156.00;;;21.83;68.89
19286;BME280;9776;50.798;6.430;2022-08-05T07:07:07;100158.88;;;21.70;69.44
19286;BME280;9776;50.798;6.430;2022-08-05T07:09:34;100160.16;;;21.67;69.28
19286;BME280;9776;50.798;6.430;2022-08-05T07:12:01;100166.56;;;21.66;69.39
19286;BME280;9776;50.798;6.430;2022-08-05T07:14:27;100172.44;;;21.57;69.74
19286;BME280;9776;50.798;6.430;2022-08-05T07:17:12;100176.66;;;21.53;70.10
19286;BME280;9776;50.798;6.430;2022-08-05T07:19:38;100172.00;;;21.41;70.55
19286;BME280;9776;50.798;6.430;2022-08-05T07:22:06;100167.91;;;21.39;70.59
19286;BME280;9776;50.798;6.430;2022-08-05T07:24:33;100174.31;;;21.38;70.88
19286;BME280;9776;50.798;6.430;2022-08-05T07:27:00;100177.47;;;21.35;71.07
19286;BME280;9776;50.798;6.430;2022-08-05T07:29:27;100173.56;;;21.31;71.46
19286;BME280;9776;50.798;6.430;2022-08-05T07:31:53;100177.53;;;21.28;71.57
19286;BME280;9776;50.798;6.430;2022-08-05T07:34:20;100184.22;;;21.19;71.92
19286;BME280;9776;50.798;6.430;2022-08-05T07:36:47;100184.22;;;21.19;71.88
19286;BME280;9776;50.798;6.430;2022-08-05T07:39:15;100193.94;;;21.38;71.41
19286;BME280;9776;50.798;6.430;2022-08-05T07:41:42;100203.19;;;21.61;70.82
19286;BME280;9776;50.798;6.430;2022-08-05T07:44:08;100203.84;;;21.74;70.26
19286;BME280;9776;50.798;6.430;2022-08-05T07:46:35;100195.50;;;21.82;69.88
19286;BME280;9776;50.798;6.430;2022-08-05T07:49:03;100204.81;;;21.80;69.48
19286;BME280;9776;50.798;6.430;2022-08-05T07:51:31;100203.47;;;21.71;69.44
19286;BME280;9776;50.798;6.430;2022-08-05T07:53:58;100209.66;;;21.53;70.07
19286;BME280;9776;50.798;6.430;2022-08-05T07:56:27;100211.47;;;21.41;70.32
19286;BME280;9776;50.798;6.430;2022-08-05T07:58:54;100223.09;;;21.35;70.36
19286;BME280;9776;50.798;6.430;2022-08-05T08:01:20;100220.03;;;21.31;70.35
19286;BME280;9776;50.798;6.430;2022-08-05T08:03:50;100235.00;;;21.21;70.56
19286;BME280;9776;50.798;6.430;2022-08-05T08:06:17;100242.31;;;21.07;70.73
19286;BME280;9776;50.798;6.430;2022-08-05T08:08:43;100239.47;;;21.02;70.93
19286;BME280;9776;50.798;6.430;2022-08-05T08:11:10;100248.75;;;21.06;70.71
19286;BME280;9776;50.798;6.430;2022-08-05T08:13:39;100251.47;;;21.24;70.19
19286;BME280;9776;50.798;6.430;2022-08-05T08:16:06;100257.66;;;21.25;69.93
19286;BME280;9776;50.798;6.430;2022-08-05T08:18:32;100257.38;;;21.15;70.18
19286;BME280;9776;50.798;6.430;2022-08-05T08:20:59;100264.22;;;21.04;70.14
19286;BME280;9776;50.798;6.430;2022-08-05T08:23:26;100265.34;;;20.90;70.43
19286;BME280;9776;50.798;6.430;2022-08-05T08:25:52;100265.78;;;20.87;70.54
19286;BME280;9776;50.798;6.430;2022-08-05T08:28:19;100266.84;;;20.86;70.60
19286;BME280;9776;50.798;6.430;2022-08-05T08:30:47;100268.28;;;20.88;70.50
19286;BME280;9776;50.798;6.430;2022-08-05T08:33:14;100278.47;;;21.05;69.88
19286;BME280;9776;50.798;6.430;2022-08-05T08:35:41;100266.91;;;21.04;69.65
19286;BME280;9776;50.798;6.430;2022-08-05T08:38:08;100282.84;;;20.99;69.91
19286;BME280;9776;50.798;6.430;2022-08-05T08:40:35;100280.53;;;21.09;69.24
19286;BME280;9776;50.798;6.430;2022-08-05T08:43:02;100285.63;;;21.17;69.00
19286;BME280;9776;50.798;6.430;2022-08-05T08:45:30;100286.50;;;21.11;68.68
19286;BME280;9776;50.798;6.430;2022-08-05T08:47:59;100291.38;;;21.21;68.58
19286;BME280;9776;50.798;6.430;2022-08-05T08:50:30;100286.31;;;21.31;68.17
19286;BME280;9776;50.798;6.430;2022-08-05T08:53:02;100302.22;;;21.32;68.04
19286;BME280;9776;50.798;6.430;2022-08-05T08:55:30;100302.47;;;21.24;68.34
19286;BME280;9776;50.798;6.430;2022-08-05T08:57:58;100314.16;;;21.12;68.73
19286;BME280;9776;50.798;6.430;2022-08-05T09:00:25;100315.97;;;20.86;69.51
19286;BME280;9776;50.798;6.430;2022-08-05T09:02:53;100311.34;;;20.69;69.49
19286;BME280;9776;50.798;6.430;2022-08-05T09:05:21;100318.38;;;20.63;69.44
19286;BME280;9776;50.798;6.430;2022-08-05T09:07:50;100307.78;;;20.75;69.10
19286;BME280;9776;50.798;6.430;2022-08-05T09:10:17;100315.75;;;20.88;68.58
19286;BME280;9776;50.798;6.430;2022-08-05T09:12:44;100331.16;;;20.99;68.25
19286;BME280;9776;50.798;6.430;2022-08-05T09:15:11;100335.47;;;21.00;68.27
19286;BME280;9776;50.798;6.430;2022-08-05T09:17:39;100338.00;;;20.95;68.11
19286;BME280;9776;50.798;6.430;2022-08-05T09:20:07;100335.00;;;20.78;68.56
19286;BME280;9776;50.798;6.430;2022-08-05T09:23:05;100328.56;;;20.48;69.15
19286;BME280;9776;50.798;6.430;2022-08-05T09:25:32;100339.31;;;20.42;69.28
19286;BME280;9776;50.798;6.430;2022-08-05T09:28:08;100343.00;;;20.41;69.55
19286;BME280;9776;50.798;6.430;2022-08-05T09:30:35;100337.34;;;20.62;69.28
19286;BME280;9776;50.798;6.430;2022-08-05T09:33:03;100343.66;;;20.80;68.49
19286;BME280;9776;50.798;6.430;2022-08-05T09:35:30;100352.16;;;20.71;68.65
19286;BME280;9776;50.798;6.430;2022-08-05T09:37:57;100356.13;;;20.62;68.89
19286;BME280;9776;50.798;6.430;2022-08-05T09:40:33;100360.78;;;20.79;68.17
19286;BME280;9776;50.798;6.430;2022-08-05T09:43:03;100365.50;;;20.84;68.27
19286;BME280;9776;50.798;6.430;2022-08-05T09:45:39;100365.72;;;20.82;68.06
19286;BME280;9776;50.798;6.430;2022-08-05T09:48:21;100374.47;;;20.65;68.24
19286;BME280;9776;50.798;6.430;2022-08-05T09:50:52;100386.03;;;20.65;68.49
19286;BME280;9776;50.798;6.430;2022-08-05T09:53:19;100380.22;;;20.75;68.11
19286;BME280;9776;50.798;6.430;2022-08-05T09:55:50;100393.66;;;20.68;67.98
19286;BME280;9776;50.798;6.430;2022-08-05T09:58:17;100401.31;;;20.58;68.24
19286;BME280;9776;50.798;6.430;2022-08-05T10:00:55;100407.56;;;20.46;68.63
19286;BME280;9776;50.798;6.430;2022-08-05T10:03:23;100393.09;;;20.47;68.77
19286;BME280;9776;50.798;6.430;2022-08-05T10:06:01;100395.13;;;20.58;68.47
19286;BME280;9776;50.798;6.430;2022-08-05T10:08:29;100401.31;;;21.03;67.27
19286;BME280;9776;50.798;6.430;2022-08-05T10:10:57;100404.00;;;21.40;66.39
19286;BME280;9776;50.798;6.430;2022-08-05T10:13:29;100406.16;;;21.50;66.46
19286;BME280;9776;50.798;6.430;2022-08-05T10:15:56;100414.19;;;21.57;65.91
19286;BME280;9776;50.798;6.430;2022-08-05T10:18:25;100417.75;;;21.50;65.81
19286;BME280;9776;50.798;6.430;2022-08-05T10:21:00;100418.84;;;21.43;65.88
19286;BME280;9776;50.798;6.430;2022-08-05T10:23:29;100420.50;;;21.69;65.06
19286;BME280;9776;50.798;6.430;2022-08-05T10:26:00;100418.75;;;21.81;64.43
19286;BME280;9776;50.798;6.430;2022-08-05T10:28:27;100419.53;;;21.88;64.46
19286;BME280;9776;50.798;6.430;2022-08-05T10:30:55;100419.38;;;21.76;64.59
19286;BME280;9776;50.798;6.430;2022-08-05T10:33:25;100431.53;;;21.61;65.09
19286;BME280;9776;50.798;6.430;2022-08-05T10:35:53;100425.19;;;21.48;65.33
19286;BME280;9776;50.798;6.430;2022-08-05T10:38:20;100437.59;;;21.49;65.47
19286;BME280;9776;50.798;6.430;2022-08-05T10:40:55;100440.84;;;21.83;64.54
19286;BME280;9776;50.798;6.430;2022-08-05T10:43:34;100441.13;;;21.75;64.65
19286;BME280;9776;50.798;6.430;2022-08-05T10:46:06;100445.72;;;21.68;64.87
19286;BME280;9776;50.798;6.430;2022-08-05T10:48:35;100445.91;;;21.73;64.90
19286;BME280;9776;50.798;6.430;2022-08-05T10:51:05;100455.94;;;21.84;64.27
19286;BME280;9776;50.798;6.430;2022-08-05T10:53:54;100449.28;;;21.86;63.76
19286;BME280;9776;50.798;6.430;2022-08-05T10:56:22;100459.75;;;22.01;63.09
19286;BME280;9776;50.798;6.430;2022-08-05T10:59:03;100459.78;;;22.19;62.72
19286;BME280;9776;50.798;6.430;2022-08-05T11:01:32;100466.09;;;24.68;56.33
19286;BME280;9776;50.798;6.430;2022-08-05T11:04:07;100463.66;;;25.63;53.58
19286;BME280;9776;50.798;6.430;2022-08-05T11:09:26;100466.13;;;27.13;49.79
19286;BME280;9776;50.798;6.430;2022-08-05T11:11:54;100469.25;;;27.04;49.79
19286;BME280;9776;50.798;6.430;2022-08-05T11:14:26;100480.06;;;28.11;47.31
19286;BME280;9776;50.798;6.430;2022-08-05T11:17:28;100474.75;;;27.95;47.16
19286;BME280;9776;50.798;6.430;2022-08-05T11:19:56;100473.59;;;27.27;48.51
19286;BME280;9776;50.798;6.430;2022-08-05T11:22:38;100476.19;;;27.71;47.70
19286;BME280;9776;50.798;6.430;2022-08-05T11:25:31;100474.09;;;27.51;47.66
19286;BME280;9776;50.798;6.430;2022-08-05T11:28:40;100475.19;;;27.50;47.34
19286;BME280;9776;50.798;6.430;2022-08-05T11:31:28;100469.78;;;30.49;41.39
19286;BME280;9776;50.798;6.430;2022-08-05T11:34:35;100473.09;;;33.53;36.02
19286;BME280;9776;50.798;6.430;2022-08-05T11:37:03;100473.16;;;35.49;32.77
19286;BME280;9776;50.798;6.430;2022-08-05T11:39:49;100471.91;;;37.52;29.77
19286;BME280;9776;50.798;6.430;2022-08-05T11:42:22;100464.22;;;38.09;28.75
19286;BME280;9776;50.798;6.430;2022-08-05T11:44:51;100460.28;;;38.19;28.23
19286;BME280;9776;50.798;6.430;2022-08-05T11:47:22;100463.59;;;38.50;27.43
19286;BME280;9776;50.798;6.430;2022-08-05T11:49:55;100464.41;;;38.80;27.25
19286;BME280;9776;50.798;6.430;2022-08-05T11:52:23;100462.78;;;38.49;27.09
19286;BME280;9776;50.798;6.430;2022-08-05T11:54:50;100465.66;;;39.53;25.53
19286;BME280;9776;50.798;6.430;2022-08-05T11:57:17;100461.06;;;40.47;24.22
19286;BME280;9776;50.798;6.430;2022-08-05T11:59:44;100462.78;;;39.29;25.32
19286;BME280;9776;50.798;6.430;2022-08-05T12:02:11;100459.56;;;39.27;25.72
19286;BME280;9776;50.798;6.430;2022-08-05T12:04:41;100454.81;;;38.48;25.68
19286;BME280;9776;50.798;6.430;2022-08-05T12:07:10;100461.66;;;38.71;25.80
19286;BME280;9776;50.798;6.430;2022-08-05T12:09:39;100467.72;;;38.65;25.41
19286;BME280;9776;50.798;6.430;2022-08-05T12:12:07;100467.06;;;37.58;26.54
19286;BME280;9776;50.798;6.430;2022-08-05T12:14:38;100457.06;;;35.56;28.89
19286;BME280;9776;50.798;6.430;2022-08-05T12:17:09;100452.69;;;36.78;27.44
19286;BME280;9776;50.798;6.430;2022-08-05T12:19:44;100452.84;;;38.86;25.01
19286;BME280;9776;50.798;6.430;2022-08-05T12:22:13;100458.06;;;40.28;23.53
19286;BME280;9776;50.798;6.430;2022-08-05T12:24:43;100455.22;;;38.67;24.93
19286;BME280;9776;50.798;6.430;2022-08-05T12:27:18;100461.97;;;36.12;27.72
19286;BME280;9776;50.798;6.430;2022-08-05T12:29:45;100455.91;;;34.86;29.35
19286;BME280;9776;50.798;6.430;2022-08-05T12:32:12;100460.38;;;33.95;30.41
19286;BME280;9776;50.798;6.430;2022-08-05T12:34:39;100464.13;;;32.92;31.68
19286;BME280;9776;50.798;6.430;2022-08-05T12:37:09;100467.47;;;33.07;31.47
19286;BME280;9776;50.798;6.430;2022-08-05T12:39:37;100462.81;;;34.42;29.51
19286;BME280;9776;50.798;6.430;2022-08-05T12:42:12;100471.16;;;34.92;28.76
19286;BME280;9776;50.798;6.430;2022-08-05T12:44:39;100468.00;;;34.85;28.89
19286;BME280;9776;50.798;6.430;2022-08-05T12:47:06;100470.59;;;34.21;29.58
19286;BME280;9776;50.798;6.430;2022-08-05T12:49:40;100477.72;;;32.97;31.23
19286;BME280;9776;50.798;6.430;2022-08-05T12:52:14;100488.84;;;31.72;32.77
19286;BME280;9776;50.798;6.430;2022-08-05T12:54:42;100484.38;;;30.88;34.16
19286;BME280;9776;50.798;6.430;2022-08-05T12:57:10;100488.31;;;30.52;34.82
19286;BME280;9776;50.798;6.430;2022-08-05T12:59:45;100484.50;;;30.27;35.14
19286;BME280;9776;50.798;6.430;2022-08-05T13:02:15;100492.19;;;29.95;35.58
19286;BME280;9776;50.798;6.430;2022-08-05T13:04:44;100494.91;;;29.85;35.66
19286;BME280;9776;50.798;6.430;2022-08-05T13:07:16;100507.97;;;29.88;35.75
19286;BME280;9776;50.798;6.430;2022-08-05T13:09:48;100501.19;;;29.86;35.87
19286;BME280;9776;50.798;6.430;2022-08-05T13:12:15;100500.38;;;29.95;35.33
19286;BME280;9776;50.798;6.430;2022-08-05T13:14:44;100502.25;;;30.00;35.33
19286;BME280;9776;50.798;6.430;2022-08-05T13:17:16;100508.19;;;29.61;35.87